createdAt,value
2023-04-03T00:00:16.776Z, 35.89
2023-04-03T00:01:16.865Z, 35.81
2023-04-03T00:02:16.871Z, 35.82
2023-04-03T00:03:16.914Z, 35.86
2023-04-03T00:04:16.933Z, 35.80
2023-04-03T00:05:16.875Z, 35.74
2023-04-03T00:06:16.886Z, 35.72
2023-04-03T00:07:16.877Z, 35.71
2023-04-03T00:08:16.959Z, 35.69
2023-04-03T00:09:16.919Z, 35.70
2023-04-03T00:10:16.990Z, 35.68
2023-04-03T00:11:16.948Z, 35.68
2023-04-03T00:12:16.999Z, 35.63
2023-04-03T00:13:16.976Z, 35.62
2023-04-03T00:14:16.985Z, 35.59
2023-04-03T00:15:16.977Z, 35.62
2023-04-03T00:16:17.043Z, 35.59
2023-04-03T00:17:17.009Z, 35.55
2023-04-03T00:18:17.079Z, 35.52
2023-04-03T00:19:17.052Z, 35.54
2023-04-03T00:20:17.078Z, 35.51
2023-04-03T00:21:17.076Z, 35.46
2023-04-03T00:22:17.096Z, 35.45
2023-04-03T00:23:17.083Z, 35.43
2023-04-03T00:24:17.163Z, 35.43
2023-04-03T00:25:17.126Z, 35.39
2023-04-03T00:26:17.130Z, 35.35
2023-04-03T00:27:17.128Z, 35.36
2023-04-03T00:28:17.129Z, 35.31
2023-04-03T00:29:17.154Z, 35.31
2023-04-03T00:30:17.171Z, 35.30
2023-04-03T00:31:17.293Z, 35.30
2023-04-03T00:32:17.211Z, 35.25
2023-04-03T00:33:17.208Z, 35.25
2023-04-03T00:34:17.202Z, 35.25
2023-04-03T00:35:17.264Z, 35.23
2023-04-03T00:36:17.336Z, 35.16
2023-04-03T00:37:17.243Z, 35.14
2023-04-03T00:38:17.324Z, 35.14
2023-04-03T00:39:17.287Z, 35.14
2023-04-03T00:40:17.320Z, 35.15
2023-04-03T00:41:17.297Z, 35.16
2023-04-03T00:42:17.354Z, 35.18
2023-04-03T00:43:17.340Z, 35.14
2023-04-03T00:44:17.344Z, 35.08
2023-04-03T00:45:17.401Z, 35.11
2023-04-03T00:46:17.404Z, 35.09
2023-04-03T00:47:17.401Z, 35.08
2023-04-03T00:48:17.373Z, 35.06
2023-04-03T00:49:17.464Z, 35.02
2023-04-03T00:50:17.448Z, 34.97
2023-04-03T00:51:17.439Z, 34.95
2023-04-03T00:52:17.450Z, 34.91
2023-04-03T00:53:17.458Z, 34.91
2023-04-03T00:54:17.463Z, 34.92
2023-04-03T00:55:17.511Z, 34.92
2023-04-03T00:56:17.561Z, 34.93
2023-04-03T00:57:17.643Z, 34.90
2023-04-03T00:58:17.545Z, 34.92
2023-04-03T00:59:17.560Z, 34.90
2023-04-03T01:00:17.549Z, 34.89
2023-04-03T01:01:17.645Z, 34.90
2023-04-03T01:02:17.590Z, 34.90
2023-04-03T01:03:17.628Z, 34.85
2023-04-03T01:04:17.677Z, 34.83
2023-04-03T01:05:17.630Z, 34.81
2023-04-03T01:06:17.618Z, 34.82
2023-04-03T01:07:17.676Z, 34.80
2023-04-03T01:08:17.648Z, 34.77
2023-04-03T01:09:17.646Z, 34.69
2023-04-03T01:10:17.656Z, 34.70
2023-04-03T01:11:17.688Z, 34.70
2023-04-03T01:12:17.694Z, 34.71
2023-04-03T01:13:17.702Z, 34.68
2023-04-03T01:14:17.723Z, 34.66
2023-04-03T01:15:17.741Z, 34.62
2023-04-03T01:16:17.817Z, 34.60
2023-04-03T01:17:17.758Z, 34.55
2023-04-03T01:18:17.844Z, 34.56
2023-04-03T01:19:17.822Z, 34.60
2023-04-03T01:20:17.873Z, 34.56
2023-04-03T01:21:17.895Z, 34.54
2023-04-03T01:22:17.879Z, 34.54
2023-04-03T01:23:17.887Z, 34.52
2023-04-03T01:24:17.873Z, 34.51
2023-04-03T01:25:17.866Z, 34.50
2023-04-03T01:26:17.867Z, 34.51
2023-04-03T01:27:17.937Z, 34.49
2023-04-03T01:28:17.910Z, 34.47
2023-04-03T01:29:17.973Z, 34.43
2023-04-03T01:30:17.973Z, 34.41
2023-04-03T01:31:18.042Z, 34.43
2023-04-03T01:32:17.999Z, 34.38
2023-04-03T01:33:17.978Z, 34.39
2023-04-03T01:34:18.006Z, 34.37
2023-04-03T01:35:18.008Z, 34.38
2023-04-03T01:36:18.011Z, 34.37
2023-04-03T01:37:17.988Z, 34.38
2023-04-03T01:38:18.008Z, 34.32
2023-04-03T01:39:18.019Z, 34.30
2023-04-03T01:40:18.048Z, 34.29
2023-04-03T01:41:18.044Z, 34.29
2023-04-03T01:42:18.059Z, 34.25
2023-04-03T01:43:18.060Z, 34.26
2023-04-03T01:44:18.089Z, 34.27
2023-04-03T01:45:18.161Z, 34.21
2023-04-03T01:46:18.157Z, 34.21
2023-04-03T01:47:18.163Z, 34.23
2023-04-03T01:48:18.131Z, 34.22
2023-04-03T01:49:18.402Z, 34.18
2023-04-03T01:50:18.195Z, 34.16
2023-04-03T01:51:18.182Z, 34.14
2023-04-03T01:52:18.244Z, 34.14
2023-04-03T01:53:18.218Z, 34.12
2023-04-03T01:54:18.259Z, 34.12
2023-04-03T01:55:18.248Z, 34.09
2023-04-03T01:56:18.279Z, 34.11
2023-04-03T01:57:18.284Z, 34.08
2023-04-03T01:58:18.317Z, 34.05
2023-04-03T01:59:18.295Z, 34.06
2023-04-03T02:00:18.311Z, 34.08
2023-04-03T02:01:18.312Z, 34.03
2023-04-03T02:02:18.394Z, 34.05
2023-04-03T02:03:18.334Z, 34.06
2023-04-03T02:04:18.404Z, 34.04
2023-04-03T02:05:18.422Z, 33.98
2023-04-03T02:06:18.401Z, 34.01
2023-04-03T02:07:18.440Z, 33.98
2023-04-03T02:08:18.420Z, 33.92
2023-04-03T02:09:18.480Z, 33.88
2023-04-03T02:10:18.454Z, 33.94
2023-04-03T02:11:18.496Z, 33.89
2023-04-03T02:12:18.470Z, 33.86
2023-04-03T02:13:18.472Z, 33.83
2023-04-03T02:14:18.475Z, 33.80
2023-04-03T02:15:18.487Z, 33.79
2023-04-03T02:16:18.618Z, 33.81
2023-04-03T02:17:18.543Z, 33.82
2023-04-03T02:18:18.542Z, 33.80
2023-04-03T02:19:18.544Z, 33.77
2023-04-03T02:20:18.558Z, 33.82
2023-04-03T02:21:18.562Z, 33.79
2023-04-03T02:22:18.569Z, 33.78
2023-04-03T02:23:18.595Z, 33.74
2023-04-03T02:24:18.580Z, 33.72
2023-04-03T02:25:18.704Z, 33.72
2023-04-03T02:26:18.652Z, 33.74
2023-04-03T02:27:18.721Z, 33.67
2023-04-03T02:28:18.725Z, 33.60
2023-04-03T02:29:18.696Z, 33.63
2023-04-03T02:30:18.737Z, 33.63
2023-04-03T02:31:18.753Z, 33.62
2023-04-03T02:32:18.711Z, 33.59
2023-04-03T02:33:18.745Z, 33.57
2023-04-03T02:34:18.728Z, 33.58
2023-04-03T02:35:18.748Z, 33.62
2023-04-03T02:36:18.824Z, 33.64
2023-04-03T02:37:18.795Z, 33.65
2023-04-03T02:38:18.884Z, 33.61
2023-04-03T02:39:18.845Z, 33.59
2023-04-03T02:40:18.852Z, 33.54
2023-04-03T02:41:18.846Z, 33.54
2023-04-03T02:42:18.842Z, 33.51
2023-04-03T02:43:18.863Z, 33.53
2023-04-03T02:44:18.868Z, 33.54
2023-04-03T02:45:18.962Z, 33.51
2023-04-03T02:46:19.037Z, 33.51
2023-04-03T02:47:18.966Z, 33.50
2023-04-03T02:48:18.938Z, 33.44
2023-04-03T02:49:18.938Z, 33.41
2023-04-03T02:50:18.951Z, 33.45
2023-04-03T02:51:18.962Z, 33.47
2023-04-03T02:52:18.968Z, 33.45
2023-04-03T02:53:18.974Z, 33.44
2023-04-03T02:54:19.055Z, 33.40
2023-04-03T02:55:19.030Z, 33.40
2023-04-03T02:56:19.091Z, 33.41
2023-04-03T02:57:19.084Z, 33.37
2023-04-03T02:58:19.077Z, 33.34
2023-04-03T02:59:19.060Z, 33.31
2023-04-03T03:00:19.077Z, 33.33
2023-04-03T03:01:19.216Z, 33.30
2023-04-03T03:02:19.142Z, 33.26
2023-04-03T03:03:19.152Z, 33.27
2023-04-03T03:04:19.142Z, 33.27
2023-04-03T03:05:19.334Z, 33.25
2023-04-03T03:06:19.190Z, 33.25
2023-04-03T03:07:19.196Z, 33.22
2023-04-03T03:08:19.187Z, 33.21
2023-04-03T03:09:19.209Z, 33.22
2023-04-03T03:10:19.207Z, 33.22
2023-04-03T03:11:19.217Z, 33.18
2023-04-03T03:12:19.281Z, 33.15
2023-04-03T03:13:19.277Z, 33.16
2023-04-03T03:14:19.271Z, 33.13
2023-04-03T03:15:19.264Z, 33.13
2023-04-03T03:16:19.381Z, 33.13
2023-04-03T03:17:19.286Z, 33.10
2023-04-03T03:18:19.312Z, 33.06
2023-04-03T03:19:19.325Z, 33.05
2023-04-03T03:20:19.316Z, 33.07
2023-04-03T03:21:19.371Z, 33.06
2023-04-03T03:22:19.350Z, 33.05
2023-04-03T03:23:19.419Z, 33.06
2023-04-03T03:24:19.406Z, 33.05
2023-04-03T03:25:19.414Z, 33.06
2023-04-03T03:26:19.407Z, 33.01
2023-04-03T03:27:19.403Z, 32.98
2023-04-03T03:28:19.422Z, 32.98
2023-04-03T03:29:19.433Z, 32.99
2023-04-03T03:30:19.511Z, 32.99
2023-04-03T03:31:19.508Z, 33.17
2023-04-03T03:32:19.487Z, 34.41
2023-04-03T03:33:19.492Z, 34.84
2023-04-03T03:34:19.528Z, 34.89
2023-04-03T03:35:19.575Z, 34.82
2023-04-03T03:36:19.580Z, 34.75
2023-04-03T03:37:19.582Z, 34.55
2023-04-03T03:38:19.551Z, 34.23
2023-04-03T03:39:19.600Z, 33.80
2023-04-03T03:40:19.585Z, 33.65
2023-04-03T03:41:19.622Z, 38.71
2023-04-03T03:42:19.601Z, 44.43
2023-04-03T03:43:19.601Z, 47.17
2023-04-03T03:44:19.627Z, 48.96
2023-04-03T03:45:19.618Z, 50.14
2023-04-03T03:46:19.682Z, 50.61
2023-04-03T03:47:19.643Z, 52.73
2023-04-03T03:48:19.654Z, 53.41
2023-04-03T03:49:19.668Z, 50.99
2023-04-03T03:50:19.754Z, 47.87
2023-04-03T03:51:19.732Z, 44.93
2023-04-03T03:52:19.789Z, 42.27
2023-04-03T03:53:19.749Z, 38.98
2023-04-03T03:54:19.751Z, 35.59
2023-04-03T03:55:19.753Z, 33.32
2023-04-03T03:56:19.773Z, 35.71
2023-04-03T03:57:20.064Z, 40.18
2023-04-03T03:58:19.913Z, 43.86
2023-04-03T03:59:19.917Z, 46.88
2023-04-03T04:00:19.921Z, 48.95
2023-04-03T04:01:19.925Z, 50.25
2023-04-03T04:02:19.991Z, 52.40
2023-04-03T04:03:19.961Z, 53.24
2023-04-03T04:04:19.998Z, 54.11
2023-04-03T04:05:19.913Z, 56.28
2023-04-03T04:06:19.911Z, 58.98
2023-04-03T04:07:19.917Z, 65.73
2023-04-03T04:08:19.915Z, 58.84
2023-04-03T04:09:19.961Z, 52.86
2023-04-03T04:10:19.958Z, 54.03
2023-04-03T04:11:19.989Z, 55.35
2023-04-03T04:12:19.976Z, 57.24
2023-04-03T04:13:20.034Z, 60.01
2023-04-03T04:14:20.009Z, 67.54
2023-04-03T04:15:20.027Z, 55.26
2023-04-03T04:16:20.078Z, 52.96
2023-04-03T04:17:20.072Z, 54.23
2023-04-03T04:18:20.041Z, 55.70
2023-04-03T04:19:20.053Z, 57.85
2023-04-03T04:20:20.053Z, 61.04
2023-04-03T04:21:20.061Z, 64.79
2023-04-03T04:22:20.148Z, 53.70
2023-04-03T04:23:20.112Z, 54.32
2023-04-03T04:24:20.218Z, 54.92
2023-04-03T04:25:20.161Z, 55.53
2023-04-03T04:26:20.166Z, 56.45
2023-04-03T04:27:20.168Z, 54.98
2023-04-03T04:28:20.176Z, 51.95
2023-04-03T04:29:20.167Z, 49.27
2023-04-03T04:30:20.268Z, 47.66
2023-04-03T04:31:20.286Z, 46.54
2023-04-03T04:32:20.230Z, 45.40
2023-04-03T04:33:20.224Z, 44.10
2023-04-03T04:34:20.233Z, 42.88
2023-04-03T04:35:20.314Z, 41.92
2023-04-03T04:36:20.357Z, 41.18
2023-04-03T04:37:20.318Z, 43.20
2023-04-03T04:38:20.301Z, 49.30
2023-04-03T04:39:20.359Z, 54.58
2023-04-03T04:40:20.369Z, 57.93
2023-04-03T04:41:20.345Z, 57.62
2023-04-03T04:42:20.357Z, 56.68
2023-04-03T04:43:20.360Z, 55.92
2023-04-03T04:44:20.352Z, 55.28
2023-04-03T04:45:20.384Z, 54.63
2023-04-03T04:46:20.469Z, 53.93
2023-04-03T04:47:20.437Z, 53.25
2023-04-03T04:48:20.484Z, 52.49
2023-04-03T04:49:20.451Z, 51.71
2023-04-03T04:50:20.517Z, 51.08
2023-04-03T04:51:20.477Z, 50.49
2023-04-03T04:52:20.478Z, 49.87
2023-04-03T04:53:20.478Z, 49.25
2023-04-03T04:54:20.479Z, 48.65
2023-04-03T04:55:20.491Z, 48.08
2023-04-03T04:56:20.506Z, 47.52
2023-04-03T04:57:20.567Z, 46.95
2023-04-03T04:58:20.526Z, 46.37
2023-04-03T04:59:21.909Z, 45.69
2023-04-03T05:00:20.600Z, 45.01
2023-04-03T05:01:20.623Z, 44.17
2023-04-03T05:02:20.589Z, 43.75
2023-04-03T05:03:20.603Z, 49.19
2023-04-03T05:04:20.646Z, 54.92
2023-04-03T05:05:20.694Z, 56.94
2023-04-03T05:06:20.657Z, 55.30
2023-04-03T05:07:20.710Z, 54.03
2023-04-03T05:08:20.690Z, 53.19
2023-04-03T05:09:20.683Z, 52.42
2023-04-03T05:10:20.755Z, 51.71
2023-04-03T05:11:20.733Z, 50.98
2023-04-03T05:12:20.848Z, 50.26
2023-04-03T05:13:20.811Z, 49.55
2023-04-03T05:14:20.820Z, 48.82
2023-04-03T05:15:20.807Z, 48.16
2023-04-03T05:16:20.989Z, 47.77
2023-04-03T05:17:20.826Z, 47.53
2023-04-03T05:18:20.823Z, 47.29
2023-04-03T05:19:20.820Z, 47.08
2023-04-03T05:20:20.839Z, 46.83
2023-04-03T05:21:20.838Z, 46.58
2023-04-03T05:22:20.822Z, 46.37
2023-04-03T05:23:20.907Z, 46.18
2023-04-03T05:24:20.924Z, 46.01
2023-04-03T05:25:20.928Z, 45.80
2023-04-03T05:26:20.911Z, 45.62
2023-04-03T05:27:20.957Z, 45.42
2023-04-03T05:28:20.938Z, 45.24
2023-04-03T05:29:20.984Z, 45.06
2023-04-03T05:30:20.958Z, 44.95
2023-04-03T05:31:21.020Z, 44.81
2023-04-03T05:32:21.024Z, 44.65
2023-04-03T05:33:20.999Z, 44.52
2023-04-03T05:34:21.005Z, 44.43
2023-04-03T05:35:21.019Z, 44.26
2023-04-03T05:36:21.021Z, 44.14
2023-04-03T05:37:21.032Z, 44.01
2023-04-03T05:38:21.057Z, 43.86
2023-04-03T05:39:21.045Z, 43.76
2023-04-03T05:40:21.083Z, 43.64
2023-04-03T05:41:21.082Z, 43.51
2023-04-03T05:42:21.148Z, 43.42
2023-04-03T05:43:21.135Z, 43.31
2023-04-03T05:44:21.130Z, 43.18
2023-04-03T05:45:21.131Z, 43.08
2023-04-03T05:46:21.248Z, 42.95
2023-04-03T05:47:21.154Z, 42.83
2023-04-03T05:48:21.156Z, 42.74
2023-04-03T05:49:21.392Z, 42.60
2023-04-03T05:50:21.390Z, 42.54
2023-04-03T05:51:21.389Z, 42.44
2023-04-03T05:52:21.397Z, 42.42
2023-04-03T05:53:21.258Z, 42.36
2023-04-03T05:54:21.243Z, 42.23
2023-04-03T05:55:21.243Z, 42.15
2023-04-03T05:56:21.326Z, 42.07
2023-04-03T05:57:21.321Z, 41.95
2023-04-03T05:58:21.364Z, 41.88
2023-04-03T05:59:21.337Z, 41.82
2023-04-03T06:00:21.381Z, 41.72
2023-04-03T06:01:21.353Z, 41.63
2023-04-03T06:02:21.379Z, 41.54
2023-04-03T06:03:21.576Z, 41.52
2023-04-03T06:04:21.502Z, 41.48
2023-04-03T06:05:21.455Z, 41.38
2023-04-03T06:06:21.449Z, 41.30
2023-04-03T06:07:21.490Z, 41.22
2023-04-03T06:08:21.513Z, 41.14
2023-04-03T06:09:21.454Z, 41.07
2023-04-03T06:10:21.482Z, 40.97
2023-04-03T06:11:21.464Z, 40.89
2023-04-03T06:12:21.466Z, 40.87
2023-04-03T06:13:21.465Z, 40.84
2023-04-03T06:14:21.489Z, 40.73
2023-04-03T06:15:21.502Z, 40.72
2023-04-03T06:16:21.566Z, 40.69
2023-04-03T06:17:21.608Z, 40.64
2023-04-03T06:18:21.549Z, 40.57
2023-04-03T06:19:21.551Z, 40.47
2023-04-03T06:20:21.563Z, 40.39
2023-04-03T06:21:21.580Z, 40.32
2023-04-03T06:22:21.663Z, 40.29
2023-04-03T06:23:21.642Z, 40.18
2023-04-03T06:24:21.689Z, 40.14
2023-04-03T06:25:21.658Z, 40.09
2023-04-03T06:26:21.718Z, 40.08
2023-04-03T06:27:21.904Z, 40.05
2023-04-03T06:28:21.711Z, 39.96
2023-04-03T06:29:21.715Z, 39.85
2023-04-03T06:30:21.705Z, 39.83
2023-04-03T06:31:21.747Z, 39.80
2023-04-03T06:32:21.743Z, 39.76
2023-04-03T06:33:21.802Z, 39.66
2023-04-03T06:34:21.779Z, 39.65
2023-04-03T06:35:21.829Z, 39.65
2023-04-03T06:36:21.819Z, 39.60
2023-04-03T06:37:21.807Z, 39.53
2023-04-03T06:38:21.799Z, 39.48
2023-04-03T06:39:21.810Z, 39.45
2023-04-03T06:40:21.809Z, 39.41
2023-04-03T06:41:21.824Z, 39.37
2023-04-03T06:42:21.867Z, 39.34
2023-04-03T06:43:23.048Z, 39.33
2023-04-03T06:44:21.928Z, 39.30
2023-04-03T06:45:21.898Z, 39.24
2023-04-03T06:46:21.926Z, 39.16
2023-04-03T06:47:21.900Z, 39.17
2023-04-03T06:48:21.916Z, 39.10
2023-04-03T06:49:21.933Z, 39.08
2023-04-03T06:50:21.988Z, 39.04
2023-04-03T06:51:21.977Z, 39.04
2023-04-03T06:52:22.046Z, 39.03
2023-04-03T06:53:22.029Z, 38.98
2023-04-03T06:54:22.255Z, 38.95
2023-04-03T06:55:22.026Z, 38.92
2023-04-03T06:56:22.030Z, 38.87
2023-04-03T06:57:22.101Z, 38.78
2023-04-03T06:58:23.259Z, 38.73
2023-04-03T06:59:22.068Z, 38.71
2023-04-03T07:00:22.067Z, 38.71
2023-04-03T07:01:22.102Z, 38.67
2023-04-03T07:02:22.202Z, 38.65
2023-04-03T07:03:22.102Z, 38.59
2023-04-03T07:04:22.132Z, 38.51
2023-04-03T07:05:22.124Z, 38.47
2023-04-03T07:06:22.184Z, 38.43
2023-04-03T07:07:22.167Z, 38.41
2023-04-03T07:08:22.200Z, 38.39
2023-04-03T07:09:22.188Z, 38.36
2023-04-03T07:10:22.192Z, 38.36
2023-04-03T07:11:22.205Z, 38.33
2023-04-03T07:12:22.212Z, 38.30
2023-04-03T07:13:22.303Z, 38.25
2023-04-03T07:14:22.312Z, 38.25
2023-04-03T07:15:22.287Z, 38.20
2023-04-03T07:16:22.292Z, 38.17
2023-04-03T07:17:22.293Z, 38.19
2023-04-03T07:18:22.312Z, 38.14
2023-04-03T07:19:22.328Z, 38.11
2023-04-03T07:20:22.340Z, 38.11
2023-04-03T07:21:22.339Z, 38.07
2023-04-03T07:22:22.339Z, 38.05
2023-04-03T07:23:22.373Z, 38.02
2023-04-03T07:24:22.386Z, 37.97
2023-04-03T07:25:22.383Z, 37.96
2023-04-03T07:26:22.443Z, 37.95
2023-04-03T07:27:22.432Z, 37.92
2023-04-03T07:28:22.464Z, 37.83
2023-04-03T07:29:22.520Z, 37.81
2023-04-03T07:30:22.464Z, 37.76
2023-04-03T07:31:22.514Z, 37.76
2023-04-03T07:32:22.458Z, 37.72
2023-04-03T07:33:22.460Z, 37.69
2023-04-03T07:34:22.530Z, 37.72
2023-04-03T07:35:22.555Z, 37.71
2023-04-03T07:36:22.521Z, 37.73
2023-04-03T07:37:22.617Z, 37.69
2023-04-03T07:38:22.592Z, 37.69
2023-04-03T07:39:22.622Z, 37.61
2023-04-03T07:40:22.594Z, 37.61
2023-04-03T07:41:22.630Z, 37.60
2023-04-03T07:42:22.638Z, 37.58
2023-04-03T07:43:22.619Z, 37.55
2023-04-03T07:44:22.679Z, 37.44
2023-04-03T07:45:22.642Z, 37.46
2023-04-03T07:46:22.834Z, 37.41
2023-04-03T07:47:22.806Z, 37.38
2023-04-03T07:48:22.757Z, 37.43
2023-04-03T07:49:22.713Z, 37.39
2023-04-03T07:50:22.821Z, 37.38
2023-04-03T07:51:22.726Z, 37.35
2023-04-03T07:52:22.728Z, 37.29
2023-04-03T07:53:22.744Z, 37.30
2023-04-03T07:54:22.748Z, 37.35
2023-04-03T07:55:22.849Z, 37.29
2023-04-03T07:56:22.815Z, 37.21
2023-04-03T07:57:22.906Z, 37.21
2023-04-03T07:58:22.806Z, 37.22
2023-04-03T07:59:22.809Z, 37.22
2023-04-03T08:00:22.837Z, 37.14
2023-04-03T08:01:22.809Z, 37.12
2023-04-03T08:02:22.941Z, 37.10
2023-04-03T08:03:23.009Z, 37.11
2023-04-03T08:04:23.080Z, 37.12
2023-04-03T08:05:22.930Z, 37.13
2023-04-03T08:06:32.948Z, 37.13
2023-04-03T08:07:22.938Z, 37.06
2023-04-03T08:08:22.947Z, 37.03
2023-04-03T08:09:23.011Z, 36.99
2023-04-03T08:10:23.013Z, 36.98
2023-04-03T08:11:23.022Z, 36.96
2023-04-03T08:12:23.004Z, 36.96
2023-04-03T08:13:23.010Z, 37.01
2023-04-03T08:14:23.011Z, 36.91
2023-04-03T08:15:23.019Z, 36.82
2023-04-03T08:16:23.053Z, 36.82
2023-04-03T08:17:23.044Z, 36.84
2023-04-03T08:18:23.117Z, 36.79
2023-04-03T08:19:26.443Z, 36.75
2023-04-03T08:20:23.145Z, 36.73
2023-04-03T08:21:23.121Z, 36.72
2023-04-03T08:22:23.153Z, 36.73
2023-04-03T08:23:23.149Z, 36.69
2023-04-03T08:24:23.181Z, 36.70
2023-04-03T08:25:23.180Z, 36.71
2023-04-03T08:26:23.167Z, 36.63
2023-04-03T08:27:23.210Z, 36.61
2023-04-03T08:28:23.183Z, 36.59
2023-04-03T08:29:23.240Z, 36.55
2023-04-03T08:30:23.213Z, 36.57
2023-04-03T08:31:23.362Z, 36.57
2023-04-03T08:32:23.246Z, 36.53
2023-04-03T08:33:23.298Z, 36.41
2023-04-03T08:34:23.276Z, 36.46
2023-04-03T08:35:23.275Z, 36.42
2023-04-03T08:36:23.289Z, 36.43
2023-04-03T08:37:23.275Z, 36.42
2023-04-03T08:38:23.289Z, 36.35
2023-04-03T08:39:23.318Z, 36.37
2023-04-03T08:40:23.402Z, 36.31
2023-04-03T08:41:23.369Z, 36.30
2023-04-03T08:42:23.407Z, 36.23
2023-04-03T08:43:23.372Z, 36.22
2023-04-03T08:44:23.587Z, 36.15
2023-04-03T08:45:23.409Z, 36.20
2023-04-03T08:46:23.435Z, 36.25
2023-04-03T08:47:23.864Z, 36.21
2023-04-03T08:48:23.411Z, 36.22
2023-04-03T08:49:23.551Z, 36.16
2023-04-03T08:50:23.442Z, 36.17
2023-04-03T08:51:23.521Z, 36.15
2023-04-03T08:52:23.472Z, 36.17
2023-04-03T08:53:23.531Z, 36.10
2023-04-03T08:54:23.502Z, 36.06
2023-04-03T08:55:23.494Z, 36.03
2023-04-03T08:56:23.505Z, 36.01
2023-04-03T08:57:23.625Z, 36.01
2023-04-03T08:58:23.553Z, 35.99
2023-04-03T08:59:23.546Z, 35.98
2023-04-03T09:00:23.617Z, 35.96
2023-04-03T09:01:23.652Z, 35.98
2023-04-03T09:02:23.726Z, 36.01
2023-04-03T09:03:23.727Z, 36.00
2023-04-03T09:04:23.700Z, 35.90
2023-04-03T09:05:24.191Z, 35.87
2023-04-03T09:06:23.647Z, 35.89
2023-04-03T09:07:23.664Z, 35.88
2023-04-03T09:08:23.667Z, 35.87
2023-04-03T09:09:23.682Z, 35.84
2023-04-03T09:10:23.681Z, 35.83
2023-04-03T09:11:23.686Z, 35.81
2023-04-03T09:12:23.702Z, 35.78
2023-04-03T09:13:23.771Z, 35.77
2023-04-03T09:14:23.748Z, 35.75
2023-04-03T09:15:35.611Z, 35.76
2023-04-03T09:16:23.841Z, 35.75
2023-04-03T09:17:23.899Z, 35.71
2023-04-03T09:18:23.799Z, 35.67
2023-04-03T09:19:23.798Z, 35.69
2023-04-03T09:20:23.840Z, 35.64
2023-04-03T09:21:23.827Z, 35.65
2023-04-03T09:22:23.823Z, 35.66
2023-04-03T09:23:23.815Z, 35.65
2023-04-03T09:24:23.839Z, 35.64
2023-04-03T09:25:23.867Z, 35.69
2023-04-03T09:26:23.852Z, 35.65
2023-04-03T09:27:23.943Z, 35.60
2023-04-03T09:28:23.894Z, 35.53
2023-04-03T09:29:23.973Z, 35.52
2023-04-03T09:30:23.955Z, 35.51
2023-04-03T09:31:24.025Z, 35.51
2023-04-03T09:32:23.964Z, 35.47
2023-04-03T09:33:24.009Z, 35.47
2023-04-03T09:34:23.992Z, 35.47
2023-04-03T09:35:29.832Z, 35.46
2023-04-03T09:36:24.075Z, 35.46
2023-04-03T09:37:24.064Z, 35.45
2023-04-03T09:38:24.036Z, 35.42
2023-04-03T09:39:24.084Z, 35.40
2023-04-03T09:40:24.064Z, 35.35
2023-04-03T09:41:24.060Z, 35.38
2023-04-03T09:42:24.070Z, 35.36
2023-04-03T09:43:24.094Z, 35.35
2023-04-03T09:44:24.137Z, 35.31
2023-04-03T09:45:24.102Z, 35.26
2023-04-03T09:46:24.138Z, 35.27
2023-04-03T09:47:24.216Z, 35.27
2023-04-03T09:48:24.280Z, 35.21
2023-04-03T09:49:24.131Z, 35.25
2023-04-03T09:50:24.151Z, 35.24
2023-04-03T09:51:24.153Z, 35.23
2023-04-03T09:52:24.173Z, 35.20
2023-04-03T09:53:24.199Z, 35.18
2023-04-03T09:54:24.232Z, 35.20
2023-04-03T09:55:24.226Z, 35.18
2023-04-03T09:56:24.264Z, 35.16
2023-04-03T09:57:24.274Z, 35.13
2023-04-03T09:58:24.254Z, 35.11
2023-04-03T09:59:24.260Z, 35.11
2023-04-03T10:00:24.287Z, 35.09
2023-04-03T10:01:24.411Z, 35.65
2023-04-03T10:02:24.369Z, 36.64
2023-04-03T10:03:24.349Z, 40.13
2023-04-03T10:04:24.413Z, 47.23
2023-04-03T10:05:24.367Z, 48.44
2023-04-03T10:06:24.420Z, 46.50
2023-04-03T10:07:24.394Z, 44.60
2023-04-03T10:08:24.424Z, 42.84
2023-04-03T10:09:24.391Z, 41.43
2023-04-03T10:10:24.477Z, 39.70
2023-04-03T10:11:24.461Z, 37.57
2023-04-03T10:12:24.461Z, 35.89
2023-04-03T10:13:24.500Z, 34.91
2023-04-03T10:14:24.460Z, 34.27
2023-04-03T10:15:24.514Z, 33.75
2023-04-03T10:16:24.520Z, 33.37
2023-04-03T10:17:24.525Z, 33.04
2023-04-03T10:18:25.066Z, 33.51
2023-04-03T10:19:24.521Z, 38.72
2023-04-03T10:20:24.521Z, 43.67
2023-04-03T10:21:27.557Z, 46.69
2023-04-03T10:22:24.539Z, 48.10
2023-04-03T10:23:24.552Z, 46.92
2023-04-03T10:24:24.556Z, 45.15
2023-04-03T10:25:24.578Z, 43.44
2023-04-03T10:26:24.602Z, 41.82
2023-04-03T10:27:24.653Z, 40.50
2023-04-03T10:28:24.647Z, 39.33
2023-04-03T10:29:24.665Z, 38.19
2023-04-03T10:30:24.650Z, 37.03
2023-04-03T10:31:24.706Z, 36.94
2023-04-03T10:32:24.771Z, 36.67
2023-04-03T10:33:24.684Z, 36.37
2023-04-03T10:34:24.726Z, 36.51
2023-04-03T10:35:24.704Z, 36.59
2023-04-03T10:36:24.705Z, 36.63
2023-04-03T10:37:24.700Z, 36.64
2023-04-03T10:38:24.770Z, 36.64
2023-04-03T10:39:24.740Z, 36.58
2023-04-03T10:40:24.778Z, 36.53
2023-04-03T10:41:24.768Z, 36.47
2023-04-03T10:42:24.768Z, 36.39
2023-04-03T10:43:24.830Z, 36.30
2023-04-03T10:44:24.795Z, 36.19
2023-04-03T10:45:24.800Z, 36.09
2023-04-03T10:46:24.866Z, 35.98
2023-04-03T10:47:24.934Z, 35.88
2023-04-03T10:48:24.861Z, 35.78
2023-04-03T10:49:24.934Z, 35.68
2023-04-03T10:50:24.909Z, 35.56
2023-04-03T10:51:24.945Z, 35.45
2023-04-03T10:52:24.930Z, 35.36
2023-04-03T10:53:24.969Z, 35.25
2023-04-03T10:54:24.949Z, 35.13
2023-04-03T10:55:25.015Z, 35.04
2023-04-03T10:56:24.984Z, 34.93
2023-04-03T10:57:25.045Z, 34.83
2023-04-03T10:58:24.992Z, 34.70
2023-04-03T10:59:24.993Z, 34.58
2023-04-03T11:00:24.990Z, 34.49
2023-04-03T11:01:25.030Z, 34.38
2023-04-03T11:02:25.106Z, 34.29
2023-04-03T11:03:25.095Z, 34.18
2023-04-03T11:04:25.029Z, 34.09
2023-04-03T11:05:25.034Z, 33.99
2023-04-03T11:06:25.048Z, 33.89
2023-04-03T11:07:25.083Z, 33.81
2023-04-03T11:08:25.165Z, 33.70
2023-04-03T11:09:25.108Z, 33.59
2023-04-03T11:10:25.182Z, 33.48
2023-04-03T11:11:25.159Z, 33.40
2023-04-03T11:12:25.178Z, 33.32
2023-04-03T11:13:25.165Z, 33.23
2023-04-03T11:14:25.160Z, 33.14
2023-04-03T11:15:25.155Z, 33.08
2023-04-03T11:16:25.309Z, 33.00
2023-04-03T11:17:25.219Z, 32.92
2023-04-03T11:18:25.205Z, 32.85
2023-04-03T11:19:25.304Z, 32.78
2023-04-03T11:20:25.222Z, 32.71
2023-04-03T11:21:25.242Z, 32.66
2023-04-03T11:22:25.270Z, 32.61
2023-04-03T11:23:25.649Z, 32.52
2023-04-03T11:24:25.296Z, 32.47
2023-04-03T11:25:25.272Z, 32.42
2023-04-03T11:26:25.282Z, 32.36
2023-04-03T11:27:25.293Z, 32.30
2023-04-03T11:28:25.328Z, 32.24
2023-04-03T11:29:35.061Z, 32.19
2023-04-03T11:30:25.333Z, 32.12
2023-04-03T11:31:25.511Z, 32.05
2023-04-03T11:32:25.397Z, 32.01
2023-04-03T11:33:25.388Z, 31.97
2023-04-03T11:34:25.424Z, 31.92
2023-04-03T11:35:25.400Z, 31.86
2023-04-03T11:36:26.306Z, 31.80
2023-04-03T11:37:25.419Z, 31.74
2023-04-03T11:38:25.499Z, 31.68
2023-04-03T11:39:25.471Z, 31.64
2023-04-03T11:40:25.481Z, 31.60
2023-04-03T11:41:25.479Z, 31.57
2023-04-03T11:42:25.554Z, 31.53
2023-04-03T11:43:25.495Z, 31.49
2023-04-03T11:44:25.530Z, 31.44
2023-04-03T11:45:25.560Z, 31.38
2023-04-03T11:46:25.551Z, 31.35
2023-04-03T11:47:25.653Z, 31.33
2023-04-03T11:48:25.640Z, 31.28
2023-04-03T11:49:25.631Z, 31.23
2023-04-03T11:50:25.593Z, 31.18
2023-04-03T11:51:25.583Z, 31.16
2023-04-03T11:52:25.596Z, 31.12
2023-04-03T11:53:25.601Z, 31.08
2023-04-03T11:54:30.035Z, 31.03
2023-04-03T11:55:25.618Z, 31.01
2023-04-03T11:56:25.632Z, 30.97
2023-04-03T11:57:25.689Z, 30.93
2023-04-03T11:58:25.735Z, 30.89
2023-04-03T11:59:25.699Z, 30.85
2023-04-03T12:00:25.708Z, 30.81
2023-04-03T12:01:26.688Z, 30.77
2023-04-03T12:02:25.770Z, 30.74
2023-04-03T12:03:25.831Z, 30.72
2023-04-03T12:04:25.889Z, 30.71
2023-04-03T12:05:25.755Z, 30.68
2023-04-03T12:06:25.772Z, 30.65
2023-04-03T12:07:25.852Z, 30.63
2023-04-03T12:08:25.833Z, 30.60
2023-04-03T12:09:25.905Z, 30.57
2023-04-03T12:10:32.326Z, 30.50
2023-04-03T12:11:25.904Z, 30.46
2023-04-03T12:12:25.876Z, 30.44
2023-04-03T12:13:25.925Z, 30.41
2023-04-03T12:14:25.916Z, 30.36
2023-04-03T12:15:25.941Z, 30.32
2023-04-03T12:16:25.973Z, 30.28
2023-04-03T12:17:25.968Z, 30.25
2023-04-03T12:18:25.938Z, 30.22
2023-04-03T12:19:35.506Z, 30.19
2023-04-03T12:20:25.944Z, 30.18
2023-04-03T12:21:25.939Z, 30.17
2023-04-03T12:22:25.981Z, 30.16
2023-04-03T12:23:25.992Z, 30.12
2023-04-03T12:24:26.053Z, 30.10
2023-04-03T12:25:26.055Z, 30.10
2023-04-03T12:26:28.304Z, 30.07
2023-04-03T12:27:26.070Z, 30.03
2023-04-03T12:28:26.071Z, 30.03